Time;durP1;ratioP1;P1;durP2;ratioP2;P2;SDS_P1;SDS_P2;PMS_P1;PMS_P2;Temp;Humidity;BMP_temperature;BMP_pressure;BME280_temperature;BME280_humidity;BME280_pressure;Samples;Min_cycle;Max_cycle;Signal;HPM_P1;HPM_P2
2021/12/27 00:00:35;;;;;;;107.77;42.40;;;;;;;-9.54;100.00;101334.89;1717517;82;20980;-65
2021/12/27 00:03:04;;;;;;;108.17;42.07;;;;;;;-9.63;100.00;101340.64;1734992;81;21580;-65
2021/12/27 00:05:32;;;;;;;117.53;43.50;;;;;;;-9.73;100.00;101341.83;1741285;81;21334;-65
2021/12/27 00:08:00;;;;;;;141.87;50.50;;;;;;;-9.75;100.00;101339.66;1741515;81;21034;-65
2021/12/27 00:10:28;;;;;;;117.20;45.33;;;;;;;-9.77;100.00;101337.47;1740260;81;21077;-65
2021/12/27 00:12:58;;;;;;;124.03;47.87;;;;;;;-9.85;100.00;101342.81;1732424;82;21018;-65
2021/12/27 00:15:26;;;;;;;118.37;45.90;;;;;;;-9.92;100.00;101339.16;1734704;81;21071;-65
2021/12/27 00:17:52;;;;;;;112.53;43.63;;;;;;;-10.00;100.00;101336.26;1746868;81;21036;-65
2021/12/27 00:20:22;;;;;;;103.00;40.07;;;;;;;-10.03;100.00;101341.49;1707830;83;21020;-65
2021/12/27 00:22:51;;;;;;;97.87;39.00;;;;;;;-10.07;100.00;101350.42;1750386;80;21003;-65
2021/12/27 00:25:20;;;;;;;106.00;40.03;;;;;;;-10.13;100.00;101341.39;1747056;81;21471;-65
2021/12/27 00:27:48;;;;;;;113.40;42.00;;;;;;;-10.13;100.00;101337.25;1736319;81;21654;-65
2021/12/27 00:30:16;;;;;;;124.33;44.43;;;;;;;-10.25;100.00;101331.63;1683895;84;21052;-65
2021/12/27 00:32:43;;;;;;;144.10;49.10;;;;;;;-10.25;100.00;101339.49;1709918;82;21060;-65
2021/12/27 00:35:13;;;;;;;118.13;43.33;;;;;;;-10.37;100.00;101335.59;1706720;82;21099;-65
2021/12/27 00:37:41;;;;;;;108.90;43.27;;;;;;;-10.46;100.00;101341.69;1704329;83;21112;-65
2021/12/27 00:40:11;;;;;;;98.60;39.47;;;;;;;-10.65;100.00;101339.45;1709645;82;21060;-64
2021/12/27 00:42:39;;;;;;;76.07;32.27;;;;;;;-10.75;100.00;101343.05;1709104;82;21044;-64
2021/12/27 00:45:08;;;;;;;68.30;28.07;;;;;;;-10.90;100.00;101341.83;1698155;83;21050;-65
2021/12/27 00:47:36;;;;;;;61.20;26.37;;;;;;;-11.06;100.00;101342.98;1744462;81;20992;-64
2021/12/27 00:50:05;;;;;;;62.00;26.10;;;;;;;-11.19;100.00;101352.63;1725198;81;21033;-65
2021/12/27 00:52:35;;;;;;;58.07;24.73;;;;;;;-11.28;100.00;101355.80;1737807;81;21437;-65
2021/12/27 00:55:01;;;;;;;61.17;25.53;;;;;;;-11.43;100.00;101357.03;1744005;81;21019;-65
2021/12/27 00:57:28;;;;;;;63.50;25.27;;;;;;;-11.55;100.00;101367.09;1743818;81;21518;-65
2021/12/27 00:59:55;;;;;;;62.47;24.27;;;;;;;-11.63;100.00;101364.55;1733587;81;20998;-64
2021/12/27 01:02:22;;;;;;;63.03;24.60;;;;;;;-11.75;100.00;101366.30;1751831;81;21011;-64
2021/12/27 01:04:49;;;;;;;64.73;25.77;;;;;;;-11.82;100.00;101372.90;1745446;81;21016;-65
2021/12/27 01:07:16;;;;;;;61.03;25.73;;;;;;;-11.89;100.00;101367.98;1747879;81;21122;-65
2021/12/27 01:10:05;;;;;;;74.67;27.37;;;;;;;-11.94;100.00;101371.44;1743174;81;21031;-64
2021/12/27 01:17:37;;;;;;;59.07;24.37;;;;;;;-11.79;100.00;101375.58;1739480;81;21055;-65
2021/12/27 01:20:09;;;;;;;67.17;25.50;;;;;;;-11.76;100.00;101380.72;1744679;81;21547;-64
2021/12/27 01:22:36;;;;;;;75.40;28.20;;;;;;;-11.75;100.00;101382.45;1708194;82;21556;-64
2021/12/27 01:25:06;;;;;;;69.30;27.27;;;;;;;-11.87;100.00;101377.59;1705896;82;21056;-65
2021/12/27 01:27:35;;;;;;;67.60;26.90;;;;;;;-11.91;100.00;101382.78;1737512;81;21012;-65
2021/12/27 01:30:05;;;;;;;78.10;29.10;;;;;;;-11.93;100.00;101399.21;1744517;80;21020;-65
2021/12/27 01:32:45;;;;;;;76.40;30.03;;;;;;;-11.95;100.00;101400.74;1708444;82;21058;-65
2021/12/27 01:35:05;;;;;;;73.00;27.60;;;;;;;-12.05;100.00;101399.70;1715204;81;21011;-65
2021/12/27 01:37:34;;;;;;;69.37;27.23;;;;;;;-12.10;100.00;101394.86;1747317;81;21586;-65
2021/12/27 01:40:00;;;;;;;65.83;25.80;;;;;;;-12.11;100.00;101398.09;1751689;81;21027;-65
2021/12/27 01:42:28;;;;;;;71.37;26.07;;;;;;;-12.12;100.00;101396.39;1746200;80;21494;-65
2021/12/27 01:44:54;;;;;;;74.23;28.50;;;;;;;-12.19;100.00;101390.55;1753094;81;21007;-65
2021/12/27 01:47:22;;;;;;;76.17;29.63;;;;;;;-12.27;100.00;101390.46;1736195;81;21008;-65
2021/12/27 01:49:49;;;;;;;83.67;30.53;;;;;;;-12.27;100.00;101392.94;1747253;81;21088;-65
2021/12/27 01:52:16;;;;;;;75.57;30.07;;;;;;;-12.28;100.00;101394.93;1743431;81;21001;-65
2021/12/27 01:54:43;;;;;;;75.23;27.93;;;;;;;-12.32;100.00;101401.35;1742574;81;21512;-65
2021/12/27 01:57:11;;;;;;;65.13;26.17;;;;;;;-12.37;100.00;101396.47;1736728;80;21071;-65
2021/12/27 01:59:39;;;;;;;66.27;27.23;;;;;;;-12.50;100.00;101395.70;1741838;81;21020;-65
2021/12/27 02:02:07;;;;;;;61.63;24.90;;;;;;;-12.48;100.00;101399.91;1750752;80;21566;-65
2021/12/27 02:04:34;;;;;;;62.50;25.57;;;;;;;-12.54;100.00;101392.94;1742427;81;21501;-66
2021/12/27 02:07:01;;;;;;;72.23;23.70;;;;;;;-12.52;100.00;101397.61;1743068;81;21051;-65
2021/12/27 02:09:39;;;;;;;60.60;23.87;;;;;;;-12.67;100.00;101406.55;1737430;80;21066;-65
2021/12/27 02:11:56;;;;;;;67.27;25.60;;;;;;;-12.81;100.00;101395.38;1737587;81;21104;-65
2021/12/27 02:14:23;;;;;;;60.07;23.47;;;;;;;-12.84;100.00;101390.21;1739078;81;21000;-65
2021/12/27 02:16:51;;;;;;;64.90;24.90;;;;;;;-12.87;100.00;101401.19;1741224;81;21040;-65
2021/12/27 02:19:18;;;;;;;57.47;22.67;;;;;;;-12.94;100.00;101404.02;1712227;82;21498;-66
2021/12/27 02:21:45;;;;;;;55.07;22.67;;;;;;;-13.03;100.00;101407.15;1692640;83;21552;-65
2021/12/27 02:24:12;;;;;;;56.70;22.37;;;;;;;-13.12;100.00;101408.27;1681356;84;21032;-65
2021/12/27 02:26:40;;;;;;;56.57;22.07;;;;;;;-13.17;100.00;101408.33;1681085;84;21501;-65
2021/12/27 02:29:09;;;;;;;52.37;20.03;;;;;;;-13.25;100.00;101409.44;1687953;84;21036;-65
2021/12/27 02:31:39;;;;;;;55.47;21.27;;;;;;;-13.28;100.00;101407.98;1676997;85;21044;-65
2021/12/27 02:34:05;;;;;;;53.57;22.00;;;;;;;-13.37;100.00;101407.03;1680837;84;21068;-65
2021/12/27 02:36:33;;;;;;;55.97;19.93;;;;;;;-13.45;100.00;101413.09;1681337;84;21048;-65
2021/12/27 02:39:00;;;;;;;51.53;20.07;;;;;;;-13.49;100.00;101426.41;1684634;84;21092;-64
2021/12/27 02:41:27;;;;;;;56.90;20.60;;;;;;;-13.51;100.00;101425.06;1683578;84;21024;-64
2021/12/27 02:43:54;;;;;;;53.27;21.00;;;;;;;-13.56;100.00;101420.20;1669541;84;21029;-64
2021/12/27 02:46:21;;;;;;;62.57;22.27;;;;;;;-13.63;100.00;101418.90;1675328;83;21543;-64
2021/12/27 02:48:49;;;;;;;53.57;21.50;;;;;;;-13.64;100.00;101418.44;1721006;82;21095;-64
2021/12/27 02:51:18;;;;;;;64.50;22.83;;;;;;;-13.61;100.00;101415.30;1743346;82;21106;-64
2021/12/27 02:53:49;;;;;;;64.80;22.93;;;;;;;-13.62;100.00;101418.16;1748228;82;21494;-64
2021/12/27 02:56:18;;;;;;;55.47;21.00;;;;;;;-13.59;100.00;101422.45;1748218;82;20995;-65
2021/12/27 02:58:47;;;;;;;55.43;22.57;;;;;;;-13.60;100.00;101429.03;1749544;82;21523;-64
2021/12/27 03:01:18;;;;;;;59.37;21.73;;;;;;;-13.53;100.00;101433.63;1747926;82;21133;-64
2021/12/27 03:03:45;;;;;;;55.33;22.17;;;;;;;-13.46;100.00;101436.52;1750049;82;21285;-65
2021/12/27 03:06:12;;;;;;;56.30;21.03;;;;;;;-13.49;100.00;101437.56;1747891;82;21492;-64
2021/12/27 03:08:41;;;;;;;54.93;20.33;;;;;;;-13.54;100.00;101440.59;1748854;82;21058;-64
2021/12/27 03:11:10;;;;;;;61.23;22.53;;;;;;;-13.54;100.00;101444.30;1748449;82;21031;-65
2021/12/27 03:13:50;;;;;;;63.63;22.53;;;;;;;-13.47;100.00;101451.76;1747425;81;21538;-64
2021/12/27 03:16:21;;;;;;;60.07;22.57;;;;;;;-13.41;100.00;101457.13;1746306;81;21023;-65
2021/12/27 03:18:53;;;;;;;73.43;23.30;;;;;;;-13.39;100.00;101457.23;1726525;81;21073;-65
2021/12/27 03:21:20;;;;;;;68.30;24.70;;;;;;;-13.41;100.00;101452.17;1749005;81;21589;-64
2021/12/27 03:23:49;;;;;;;58.37;21.57;;;;;;;-13.44;100.00;101444.91;1748105;82;21011;-65
2021/12/27 03:26:17;;;;;;;64.73;22.70;;;;;;;-13.50;100.00;101454.04;1746226;81;21031;-64
2021/12/27 03:28:44;;;;;;;70.70;23.63;;;;;;;-13.61;100.00;101455.77;1724567;81;20987;-64
2021/12/27 03:31:15;;;;;;;80.20;26.83;;;;;;;-13.61;100.00;101453.29;1745446;81;22435;-64
2021/12/27 03:33:43;;;;;;;69.70;25.87;;;;;;;-13.60;100.00;101459.09;1747402;82;21067;-65
2021/12/27 03:36:10;;;;;;;67.70;24.83;;;;;;;-13.60;100.00;101459.09;1748195;82;21058;-64
2021/12/27 03:38:42;;;;;;;77.10;25.67;;;;;;;-13.66;100.00;101458.32;1748126;82;21118;-64
2021/12/27 03:41:17;;;;;;;73.70;25.67;;;;;;;-13.70;100.00;101455.16;1744098;82;21589;-64
2021/12/27 03:43:45;;;;;;;71.60;25.40;;;;;;;-13.67;100.00;101461.53;1749118;81;21527;-64
2021/12/27 03:46:13;;;;;;;79.43;24.63;;;;;;;-13.75;100.00;101465.09;1744369;82;21043;-64
2021/12/27 03:48:40;;;;;;;83.60;25.00;;;;;;;-13.69;100.00;101465.91;1747559;82;21082;-64
2021/12/27 03:51:07;;;;;;;86.27;28.43;;;;;;;-13.75;100.00;101466.34;1746578;81;21032;-64
2021/12/27 03:53:35;;;;;;;87.47;27.30;;;;;;;-13.64;100.00;101474.49;1747002;82;21023;-64
2021/12/27 03:56:04;;;;;;;91.53;26.90;;;;;;;-13.64;100.00;101483.16;1746348;81;21062;-64
2021/12/27 03:58:44;;;;;;;74.17;24.43;;;;;;;-13.57;100.00;101477.89;1744716;82;21078;-65
2021/12/27 04:01:14;;;;;;;87.17;26.87;;;;;;;-13.51;100.00;101477.92;1744272;82;21487;-65
2021/12/27 04:03:32;;;;;;;82.33;26.63;;;;;;;-13.37;100.00;101476.77;1742357;82;21044;-65
2021/12/27 04:05:59;;;;;;;80.40;25.03;;;;;;;-13.49;100.00;101470.98;1745200;81;21070;-64
2021/12/27 04:08:27;;;;;;;78.03;25.87;;;;;;;-13.43;100.00;101473.88;1744439;82;21051;-65
2021/12/27 04:10:55;;;;;;;82.10;26.07;;;;;;;-13.62;100.00;101483.77;1726782;81;21523;-64
2021/12/27 04:13:23;;;;;;;91.23;25.93;;;;;;;-13.52;100.00;101487.36;1747928;82;21058;-64
2021/12/27 04:15:51;;;;;;;83.60;26.63;;;;;;;-13.46;100.00;101490.99;1744913;82;21566;-64
2021/12/27 04:18:19;;;;;;;83.40;26.97;;;;;;;-13.39;100.00;101490.28;1750734;81;21074;-64
2021/12/27 04:20:48;;;;;;;81.10;24.83;;;;;;;-13.31;100.00;101499.48;1748126;81;21031;-64
2021/12/27 04:23:16;;;;;;;80.80;27.00;;;;;;;-13.38;100.00;101500.69;1747401;82;21504;-64
2021/12/27 04:25:43;;;;;;;72.70;24.33;;;;;;;-13.53;100.00;101499.23;1746791;82;21552;-64
2021/12/27 04:28:13;;;;;;;63.27;24.07;;;;;;;-13.53;100.00;101505.43;1749330;82;21007;-64
2021/12/27 04:30:39;;;;;;;68.80;22.70;;;;;;;-13.56;100.00;101500.28;1748288;82;21061;-65
2021/12/27 04:33:06;;;;;;;68.20;23.97;;;;;;;-13.56;100.00;101499.05;1745568;82;21023;-64
2021/12/27 04:35:35;;;;;;;68.37;21.57;;;;;;;-13.60;100.00;101505.78;1748645;82;21684;-64
2021/12/27 04:38:03;;;;;;;71.07;23.33;;;;;;;-13.64;100.00;101504.20;1744594;82;21542;-64
2021/12/27 04:40:36;;;;;;;83.20;25.80;;;;;;;-13.68;100.00;101506.86;1722605;81;21042;-64
2021/12/27 04:43:11;;;;;;;120.60;32.67;;;;;;;-13.75;100.00;101508.03;1747727;82;21043;-64
2021/12/27 04:45:40;;;;;;;122.40;35.27;;;;;;;-13.73;100.00;101505.28;1748220;82;21062;-64
2021/12/27 04:48:08;;;;;;;113.67;31.57;;;;;;;-13.84;100.00;101511.50;1743714;81;21645;-64
2021/12/27 04:50:36;;;;;;;89.50;27.53;;;;;;;-13.89;100.00;101515.25;1747138;82;21183;-64
2021/12/27 04:53:05;;;;;;;92.50;27.03;;;;;;;-13.97;100.00;101519.30;1748266;81;21468;-64
2021/12/27 04:55:34;;;;;;;102.90;31.93;;;;;;;-14.00;100.00;101520.69;1747269;82;21042;-64
2021/12/27 04:58:08;;;;;;;116.20;36.13;;;;;;;-14.08;100.00;101519.28;1752208;81;21026;-64
2021/12/27 05:00:36;;;;;;;112.90;36.90;;;;;;;-14.13;100.00;101520.17;1747868;82;21149;-64
2021/12/27 05:03:04;;;;;;;103.97;32.63;;;;;;;-14.23;100.00;101521.16;1747991;82;21122;-65
2021/12/27 05:05:31;;;;;;;97.90;31.20;;;;;;;-14.29;100.00;101527.25;1746647;81;21058;-64
2021/12/27 05:08:01;;;;;;;104.33;32.93;;;;;;;-14.37;100.00;101533.75;1747038;82;20975;-64
2021/12/27 05:10:30;;;;;;;94.43;30.53;;;;;;;-14.35;100.00;101533.48;1747491;82;21027;-64
2021/12/27 05:13:17;;;;;;;92.33;31.00;;;;;;;-14.37;100.00;101528.81;1747939;81;21103;-64
2021/12/27 05:15:57;;;;;;;88.57;31.47;;;;;;;-14.38;100.00;101543.52;1764704;81;21055;-64
2021/12/27 05:21:31;;;;;;;95.28;34.10;;;;;;;-14.39;100.00;101546.38;1764866;81;21070;-64
2021/12/27 05:24:08;;;;;;;92.73;30.57;;;;;;;-14.44;100.00;101555.44;1757099;81;21022;-64
2021/12/27 05:26:35;;;;;;;98.97;30.33;;;;;;;-14.44;100.00;101560.39;1759401;80;22441;-65
2021/12/27 05:29:12;;;;;;;91.67;26.37;;;;;;;-14.47;100.00;101561.38;1739584;80;21095;-64
2021/12/27 05:31:40;;;;;;;98.70;29.70;;;;;;;-14.42;100.00;101561.36;1766983;81;21063;-64
2021/12/27 05:34:06;;;;;;;93.53;27.37;;;;;;;-14.44;100.00;101562.86;1765535;81;20988;-64
2021/12/27 05:36:33;;;;;;;83.53;27.40;;;;;;;-14.46;100.00;101572.63;1764215;81;21036;-65
2021/12/27 05:39:00;;;;;;;86.90;29.40;;;;;;;-14.47;100.00;101568.45;1763156;80;21060;-65
2021/12/27 05:41:50;;;;;;;102.57;30.60;;;;;;;-14.50;100.00;101574.39;1750539;81;20968;-65
2021/12/27 05:44:19;;;;;;;76.50;23.77;;;;;;;-14.55;100.00;101576.53;1749741;82;21078;-64
2021/12/27 05:46:54;;;;;;;78.60;25.50;;;;;;;-14.61;100.00;101583.91;1748081;81;21542;-64
2021/12/27 05:49:42;;;;;;;76.87;24.83;;;;;;;-14.63;100.00;101590.34;1749919;81;21058;-64
2021/12/27 05:52:10;;;;;;;75.87;25.60;;;;;;;-14.61;100.00;101593.41;1752024;81;21523;-64
2021/12/27 05:54:38;;;;;;;80.87;24.77;;;;;;;-14.57;100.00;101592.04;1752679;81;21043;-64
2021/12/27 05:57:05;;;;;;;80.60;25.13;;;;;;;-14.60;100.00;101605.01;1748620;82;21542;-65
2021/12/27 05:59:50;;;;;;;71.50;25.60;;;;;;;-14.63;100.00;101607.65;1747476;82;21046;-64
2021/12/27 06:02:28;;;;;;;81.90;26.20;;;;;;;-14.63;100.00;101611.36;1746979;82;21655;-64
2021/12/27 06:04:54;;;;;;;92.27;27.40;;;;;;;-14.56;100.00;101611.91;1748475;81;21030;-64
2021/12/27 06:07:31;;;;;;;82.70;26.50;;;;;;;-14.53;100.00;101618.30;1749150;81;21073;-64
2021/12/27 06:09:58;;;;;;;95.13;26.53;;;;;;;-14.39;100.00;101620.56;1747570;81;21086;-64
2021/12/27 06:12:25;;;;;;;97.20;28.50;;;;;;;-14.43;100.00;101623.94;1748769;81;21015;-64
2021/12/27 06:14:52;;;;;;;99.47;29.77;;;;;;;-14.39;100.00;101624.66;1722966;82;21023;-64
2021/12/27 06:17:19;;;;;;;86.63;28.23;;;;;;;-14.43;100.00;101628.50;1749660;81;21735;-64
2021/12/27 06:20:04;;;;;;;95.80;28.43;;;;;;;-14.51;100.00;101638.20;1751640;81;21075;-65
2021/12/27 06:22:47;;;;;;;91.97;27.73;;;;;;;-14.53;100.00;101648.34;1751306;81;21487;-63
2021/12/27 06:28:13;;;;;;;94.23;27.87;;;;;;;-14.66;100.00;101651.52;1746911;81;21004;-64
2021/12/27 06:30:42;;;;;;;86.97;26.23;;;;;;;-14.59;100.00;101657.80;1747976;81;21057;-64
2021/12/27 06:33:19;;;;;;;90.70;26.80;;;;;;;-14.45;100.00;101663.38;1747747;81;20992;-64
2021/12/27 06:35:46;;;;;;;93.00;29.73;;;;;;;-14.33;100.00;101654.41;1747010;81;21062;-64
2021/12/27 06:38:27;;;;;;;89.10;26.90;;;;;;;-14.17;100.00;101653.05;1738271;81;21044;-64
2021/12/27 06:41:09;;;;;;;87.87;28.77;;;;;;;-14.01;100.00;101649.70;1735851;81;21026;-64
2021/12/27 06:43:35;;;;;;;89.60;27.57;;;;;;;-13.95;100.00;101645.58;1682704;84;21005;-64
2021/12/27 06:46:03;;;;;;;90.43;29.40;;;;;;;-13.90;100.00;101645.56;1739406;81;21534;-64
2021/12/27 06:48:30;;;;;;;105.97;31.23;;;;;;;-13.77;100.00;101638.25;1734047;80;21038;-64
2021/12/27 06:50:57;;;;;;;95.50;31.63;;;;;;;-13.77;100.00;101644.82;1749659;80;21015;-65
2021/12/27 06:53:28;;;;;;;106.77;32.90;;;;;;;-13.72;100.00;101641.94;1739503;81;21040;-64
2021/12/27 06:55:54;;;;;;;93.43;30.10;;;;;;;-13.74;100.00;101641.34;1732653;81;21063;-65
2021/12/27 06:58:20;;;;;;;105.63;32.67;;;;;;;-14.00;100.00;101644.41;1736963;81;21545;-65
2021/12/27 07:00:47;;;;;;;114.00;34.13;;;;;;;-14.17;100.00;101644.03;1742158;81;20956;-65
2021/12/27 07:03:14;;;;;;;107.57;33.43;;;;;;;-13.87;100.00;101647.00;1736246;81;21063;-64
2021/12/27 07:05:42;;;;;;;110.80;33.27;;;;;;;-13.72;100.00;101645.65;1712513;82;21521;-65
2021/12/27 07:08:10;;;;;;;117.20;32.07;;;;;;;-13.59;100.00;101651.09;1722046;82;21579;-64
2021/12/27 07:10:37;;;;;;;96.47;31.90;;;;;;;-13.61;100.00;101653.83;1704052;82;20999;-65
2021/12/27 07:13:06;;;;;;;97.60;29.70;;;;;;;-13.56;100.00;101656.28;1732419;81;21080;-64
2021/12/27 07:15:33;;;;;;;104.77;31.77;;;;;;;-13.43;100.00;101656.77;1708081;82;21012;-64
2021/12/27 07:18:00;;;;;;;97.30;32.67;;;;;;;-13.36;100.00;101655.58;1710375;82;21046;-64
2021/12/27 07:20:27;;;;;;;99.43;31.30;;;;;;;-13.18;100.00;101651.88;1708344;82;21496;-64
2021/12/27 07:22:54;;;;;;;106.90;33.93;;;;;;;-13.14;100.00;101656.30;1698703;83;21023;-64
2021/12/27 07:25:20;;;;;;;125.57;38.50;;;;;;;-12.97;100.00;101648.81;1731989;81;21516;-64
2021/12/27 07:27:47;;;;;;;113.67;37.13;;;;;;;-12.87;100.00;101654.03;1712951;82;21168;-64
2021/12/27 07:30:14;;;;;;;108.17;37.27;;;;;;;-12.73;100.00;101649.63;1740746;81;21012;-65
2021/12/27 07:32:42;;;;;;;114.13;36.30;;;;;;;-12.46;100.00;101652.64;1741798;81;21050;-65
2021/12/27 07:35:10;;;;;;;100.23;31.33;;;;;;;-12.44;100.00;101655.70;1747890;81;21027;-65
2021/12/27 07:37:38;;;;;;;105.13;36.83;;;;;;;-12.60;100.00;101653.80;1738476;81;21079;-64
2021/12/27 07:40:06;;;;;;;105.87;36.77;;;;;;;-12.45;100.00;101656.83;1738707;81;21034;-64
2021/12/27 07:42:34;;;;;;;113.00;36.53;;;;;;;-12.20;100.00;101653.14;1746255;81;20993;-64
2021/12/27 07:45:04;;;;;;;120.77;40.43;;;;;;;-12.00;100.00;101659.03;1702790;82;21118;-65
2021/12/27 07:47:31;;;;;;;110.60;36.73;;;;;;;-11.79;100.00;101664.88;1743748;81;21626;-65
2021/12/27 07:49:58;;;;;;;114.77;39.67;;;;;;;-11.45;100.00;101667.90;1744378;81;21035;-65
2021/12/27 07:52:25;;;;;;;108.53;39.20;;;;;;;-11.36;100.00;101665.13;1737280;81;21096;-65
2021/12/27 07:54:52;;;;;;;128.17;43.43;;;;;;;-11.46;100.00;101667.41;1742163;80;21035;-64
2021/12/27 07:57:20;;;;;;;148.20;50.30;;;;;;;-11.24;100.00;101663.41;1739142;81;21520;-65
2021/12/27 07:59:49;;;;;;;140.17;49.33;;;;;;;-11.04;100.00;101657.58;1722508;82;21565;-65
2021/12/27 08:02:17;;;;;;;131.93;46.50;;;;;;;-11.11;100.00;101658.45;1726565;81;21048;-64
2021/12/27 08:04:45;;;;;;;129.97;46.97;;;;;;;-10.95;100.00;101661.47;1732546;81;20992;-65
2021/12/27 08:07:11;;;;;;;133.07;45.00;;;;;;;-11.09;100.00;101649.81;1700615;83;21042;-65
2021/12/27 08:09:39;;;;;;;136.77;43.37;;;;;;;-10.81;100.00;101654.00;1735074;82;21562;-64
2021/12/27 08:12:12;;;;;;;129.30;44.33;;;;;;;-10.62;100.00;101654.72;1736606;82;21026;-64
2021/12/27 08:14:38;;;;;;;121.90;42.10;;;;;;;-10.46;100.00;101641.56;1733753;81;21011;-64
2021/12/27 08:17:05;;;;;;;137.57;47.73;;;;;;;-10.54;100.00;101646.08;1733720;81;21511;-64
2021/12/27 08:19:34;;;;;;;145.73;51.53;;;;;;;-10.56;100.00;101643.53;1733998;81;21078;-64
2021/12/27 08:22:03;;;;;;;137.63;48.03;;;;;;;-10.40;100.00;101638.20;1736752;82;21167;-64
2021/12/27 08:24:30;;;;;;;140.30;48.60;;;;;;;-10.30;100.00;101637.97;1736907;81;21459;-64
2021/12/27 08:26:57;;;;;;;125.27;42.47;;;;;;;-10.36;100.00;101631.38;1761578;81;21065;-64
2021/12/27 08:29:24;;;;;;;142.90;51.10;;;;;;;-10.47;100.00;101624.94;1745627;81;21012;-64
2021/12/27 08:31:51;;;;;;;148.53;52.60;;;;;;;-10.38;100.00;101629.19;1719194;81;21368;-64
2021/12/27 08:34:18;;;;;;;149.53;52.80;;;;;;;-10.03;100.00;101631.61;1704083;84;21561;-64
2021/12/27 08:36:46;;;;;;;150.10;50.00;;;;;;;-9.83;100.00;101626.49;1678681;84;21076;-64
2021/12/27 08:39:13;;;;;;;149.17;52.40;;;;;;;-9.78;100.00;101621.00;1698198;83;21524;-64
2021/12/27 08:41:40;;;;;;;153.83;52.00;;;;;;;-9.67;100.00;101634.05;1688195;84;21616;-65
2021/12/27 08:44:07;;;;;;;167.47;61.57;;;;;;;-9.30;100.00;101628.63;1693146;84;21055;-66
2021/12/27 08:46:36;;;;;;;183.10;65.27;;;;;;;-9.21;100.00;101636.98;1675639;82;21376;-65
2021/12/27 08:49:04;;;;;;;173.93;60.47;;;;;;;-9.19;100.00;101633.80;1660953;84;21552;-65
2021/12/27 08:51:32;;;;;;;179.20;60.50;;;;;;;-9.10;100.00;101631.81;1675597;84;21076;-65
2021/12/27 08:53:59;;;;;;;175.37;61.03;;;;;;;-8.99;100.00;101632.77;1690009;84;21036;-64
2021/12/27 08:56:26;;;;;;;182.40;66.27;;;;;;;-8.95;100.00;101636.75;1669324;84;21036;-64
2021/12/27 08:58:54;;;;;;;173.33;61.07;;;;;;;-8.94;100.00;101638.48;1688915;84;21049;-64
2021/12/27 09:01:21;;;;;;;193.57;70.07;;;;;;;-8.87;100.00;101635.52;1695245;83;21580;-64
2021/12/27 09:03:48;;;;;;;205.40;70.70;;;;;;;-8.73;100.00;101636.25;1680566;84;21035;-64
2021/12/27 09:06:14;;;;;;;220.43;79.67;;;;;;;-8.68;100.00;101634.86;1693558;84;21480;-64
2021/12/27 09:08:43;;;;;;;220.57;77.97;;;;;;;-8.42;100.00;101633.23;1748216;80;20995;-65
2021/12/27 09:11:10;;;;;;;192.47;67.80;;;;;;;-8.33;100.00;101632.03;1736462;81;21107;-64
2021/12/27 09:13:37;;;;;;;190.73;69.97;;;;;;;-8.30;100.00;101641.31;1730926;82;21086;-64
2021/12/27 09:16:05;;;;;;;181.33;67.23;;;;;;;-8.31;100.00;101641.71;1729328;82;21617;-64
2021/12/27 09:18:36;;;;;;;186.03;66.13;;;;;;;-8.21;100.00;101643.04;1738073;82;21020;-64
2021/12/27 09:21:04;;;;;;;169.43;63.37;;;;;;;-8.20;100.00;101642.24;1732683;82;21563;-65
2021/12/27 09:23:32;;;;;;;185.77;67.77;;;;;;;-7.96;100.00;101633.02;1729076;82;21090;-64
2021/12/27 09:25:59;;;;;;;180.63;67.67;;;;;;;-7.73;100.00;101635.38;1724217;82;20988;-65
2021/12/27 09:28:26;;;;;;;188.43;70.97;;;;;;;-7.50;100.00;101637.34;1704587;82;21071;-64
2021/12/27 09:30:53;;;;;;;180.97;70.73;;;;;;;-7.46;100.00;101632.95;1726525;82;21007;-65
2021/12/27 09:33:20;;;;;;;174.80;66.00;;;;;;;-7.35;100.00;101619.69;1735893;82;21068;-65
2021/12/27 09:35:47;;;;;;;175.40;65.17;;;;;;;-7.15;100.00;101625.63;1742870;81;20965;-65
2021/12/27 09:38:15;;;;;;;149.87;60.90;;;;;;;-7.07;100.00;101631.83;1751726;81;21622;-65
2021/12/27 09:40:42;;;;;;;151.93;60.50;;;;;;;-6.94;100.00;101626.13;1748502;81;21014;-65
2021/12/27 09:43:09;;;;;;;158.20;59.90;;;;;;;-6.82;100.00;101625.42;1732979;81;21549;-64
2021/12/27 09:45:38;;;;;;;157.47;62.17;;;;;;;-6.86;100.00;101624.83;1732135;81;21535;-64
2021/12/27 09:48:06;;;;;;;158.17;60.13;;;;;;;-6.83;100.00;101626.23;1716761;81;21057;-64
2021/12/27 09:50:44;;;;;;;162.20;61.23;;;;;;;-6.87;100.00;101622.73;1726405;81;21085;-65
2021/12/27 09:53:12;;;;;;;161.27;63.83;;;;;;;-6.76;100.00;101621.94;1721144;81;21029;-65
2021/12/27 09:55:39;;;;;;;157.17;63.43;;;;;;;-6.63;100.00;101618.72;1691169;83;21152;-64
2021/12/27 09:58:06;;;;;;;159.77;62.90;;;;;;;-6.38;100.00;101619.41;1699826;83;21534;-64
2021/12/27 10:00:34;;;;;;;165.40;65.73;;;;;;;-6.28;100.00;101625.27;1726131;81;21560;-65
2021/12/27 10:03:01;;;;;;;181.90;69.93;;;;;;;-6.38;100.00;101627.77;1711673;82;21496;-65
2021/12/27 10:05:31;;;;;;;188.33;71.77;;;;;;;-6.53;100.00;101632.98;1724783;81;21065;-65
2021/12/27 10:07:59;;;;;;;195.37;72.00;;;;;;;-6.58;100.00;101628.56;1693341;84;21518;-65
2021/12/27 10:10:26;;;;;;;198.27;77.47;;;;;;;-6.55;100.00;101628.67;1683782;85;21172;-65
2021/12/27 10:12:53;;;;;;;196.17;76.13;;;;;;;-6.33;100.00;101630.06;1677709;85;21560;-64
2021/12/27 10:15:23;;;;;;;188.40;76.00;;;;;;;-5.96;100.00;101627.88;1682007;85;21145;-65
2021/12/27 10:17:51;;;;;;;178.03;71.33;;;;;;;-5.68;100.00;101626.06;1645621;86;21099;-65
2021/12/27 10:20:22;;;;;;;184.77;74.73;;;;;;;-5.85;100.00;101626.61;1670415;85;21082;-65
2021/12/27 10:22:53;;;;;;;178.80;73.10;;;;;;;-5.65;100.00;101627.83;1675369;86;21074;-65
2021/12/27 10:25:28;;;;;;;200.20;77.97;;;;;;;-5.70;100.00;101632.63;1677382;84;21025;-65
2021/12/27 10:27:59;;;;;;;196.43;76.70;;;;;;;-5.49;100.00;101630.14;1684105;85;21072;-65
2021/12/27 10:30:31;;;;;;;197.13;75.90;;;;;;;-5.37;100.00;101634.80;1680976;85;21099;-65
2021/12/27 10:33:15;;;;;;;202.73;78.77;;;;;;;-5.46;100.00;101634.01;1681538;84;21048;-65
2021/12/27 10:35:47;;;;;;;201.77;83.07;;;;;;;-5.29;100.00;101638.83;1682831;85;21063;-65
2021/12/27 10:38:25;;;;;;;210.20;81.77;;;;;;;-5.14;100.00;101638.59;1748980;82;21074;-65
2021/12/27 10:41:02;;;;;;;195.23;79.27;;;;;;;-4.86;100.00;101638.82;1749205;82;21657;-65
2021/12/27 10:43:45;;;;;;;166.20;66.17;;;;;;;-4.57;100.00;101635.25;1749336;82;21126;-65
2021/12/27 10:46:19;;;;;;;64.63;28.93;;;;;;;-4.38;100.00;101625.44;1746097;82;21039;-65
2021/12/27 10:48:55;;;;;;;61.60;28.15;;;;;;;-4.56;100.00;101628.56;1750139;82;21046;-65
2021/12/27 10:51:22;;;;;;;62.70;26.13;;;;;;;-4.71;100.00;101626.36;1747126;82;21043;-65
2021/12/27 10:53:55;;;;;;;55.93;25.83;;;;;;;-4.66;100.00;101626.99;1744534;81;21043;-64
2021/12/27 10:56:25;;;;;;;61.17;25.23;;;;;;;-4.75;100.00;101617.85;1747176;81;21605;-64
2021/12/27 10:58:59;;;;;;;57.90;26.17;;;;;;;-5.06;100.00;101623.41;1743866;82;21078;-65
2021/12/27 11:01:28;;;;;;;62.53;26.47;;;;;;;-5.27;100.00;101620.55;1743845;81;21026;-65
2021/12/27 11:04:01;;;;;;;60.03;25.17;;;;;;;-4.90;100.00;101624.84;1749732;81;21490;-65
2021/12/27 11:06:30;;;;;;;52.27;23.20;;;;;;;-4.71;100.00;101620.92;1726005;81;21428;-65
2021/12/27 11:09:00;;;;;;;44.73;20.53;;;;;;;-4.61;100.00;101620.87;1745034;82;21047;-64
2021/12/27 11:11:27;;;;;;;45.07;20.57;;;;;;;-4.61;100.00;101614.59;1746030;82;21074;-65